Time;durP1;ratioP1;P1;durP2;ratioP2;P2;SDS_P1;SDS_P2;PMS_P1;PMS_P2;Temp;Humidity;BMP_temperature;BMP_pressure;BME280_temperature;BME280_humidity;BME280_pressure;Samples;Min_cycle;Max_cycle;Signal;HPM_P1;HPM_P2
2022/07/10 00:17:27;;;;;;;1.87;0.80;;;27.20;99.90;;;;;;5052507;28;20232;-96
2022/07/10 00:26:18;;;;;;;0.60;0.60;;;28.00;99.90;;;;;;5053433;28;20192;-96
2022/07/10 00:29:05;;;;;;;1.03;0.60;;;28.00;99.90;;;;;;5047257;28;20205;-96
2022/07/10 00:34:49;;;;;;;1.80;0.70;;;27.50;99.90;;;;;;5052050;28;20213;-96
2022/07/10 00:40:23;;;;;;;1.47;1.37;;;27.50;99.90;;;;;;5056166;28;20227;-96
2022/07/10 00:42:57;;;;;;;1.23;1.13;;;27.20;99.90;;;;;;5057258;28;20211;-96
2022/07/10 00:48:22;;;;;;;3.13;1.10;;;27.40;99.90;;;;;;5051225;28;20224;-96
2022/07/10 00:50:56;;;;;;;0.93;0.70;;;27.50;99.90;;;;;;5043672;28;20213;-96
2022/07/10 00:53:30;;;;;;;1.27;1.03;;;27.60;99.90;;;;;;5041486;28;20594;-96
2022/07/10 00:56:04;;;;;;;1.73;0.80;;;27.30;99.90;;;;;;5039060;28;20586;-96
2022/07/10 00:58:40;;;;;;;0.70;0.70;;;27.50;99.90;;;;;;5047476;28;20731;-96
2022/07/10 01:01:19;;;;;;;1.13;0.70;;;28.10;99.90;;;;;;4687791;28;9999827;-96
2022/07/10 01:03:52;;;;;;;1.57;1.00;;;28.70;99.90;;;;;;5021529;28;20243;-96
2022/07/10 01:06:31;;;;;;;0.70;0.70;;;29.30;99.90;;;;;;5026675;28;20255;-96
2022/07/10 01:09:05;;;;;;;1.67;1.00;;;28.50;99.90;;;;;;5022051;28;20208;-96
2022/07/10 01:11:44;;;;;;;1.40;0.87;;;28.40;99.90;;;;;;5039656;28;20208;-96
2022/07/10 01:14:27;;;;;;;1.00;0.90;;;28.00;99.90;;;;;;5051954;28;20223;-96
2022/07/10 01:16:59;;;;;;;0.77;0.70;;;28.30;99.90;;;;;;5068675;28;20196;-96
2022/07/10 01:19:30;;;;;;;2.00;0.80;;;28.30;99.90;;;;;;5063398;28;20641;-96
2022/07/10 01:22:05;;;;;;;1.73;1.00;;;28.30;99.90;;;;;;5058033;28;20204;-96
2022/07/10 01:24:37;;;;;;;1.93;0.80;;;28.50;99.90;;;;;;5059256;28;20235;-94
2022/07/10 01:27:13;;;;;;;1.00;0.83;;;29.40;99.90;;;;;;5065098;28;20208;-96
2022/07/10 01:29:46;;;;;;;0.90;0.90;;;28.50;99.90;;;;;;5110057;22;20507;-96
2022/07/10 01:32:18;;;;;;;2.20;0.83;;;28.10;99.90;;;;;;5066164;28;20664;-96
2022/07/10 01:34:50;;;;;;;0.77;0.77;;;29.00;99.90;;;;;;5071097;28;20230;-96
2022/07/10 01:37:46;;;;;;;1.03;0.93;;;29.40;99.90;;;;;;5073600;28;20200;-96
2022/07/10 01:40:22;;;;;;;1.10;1.00;;;29.40;99.90;;;;;;5075932;28;20192;-96
2022/07/10 01:42:58;;;;;;;1.07;0.90;;;28.90;99.90;;;;;;5076712;28;20250;-96
2022/07/10 01:45:34;;;;;;;1.50;1.00;;;28.50;99.90;;;;;;5077721;28;20250;-96
2022/07/10 01:48:21;;;;;;;2.10;1.00;;;27.80;99.90;;;;;;5076849;28;20215;-96
2022/07/10 01:56:57;;;;;;;2.70;1.20;;;26.40;99.90;;;;;;5079667;28;20208;-96
2022/07/10 02:10:44;;;;;;;2.63;1.07;;;26.00;99.90;;;;;;5052108;28;20644;-96
2022/07/10 02:16:14;;;;;;;1.20;0.83;;;24.70;99.90;;;;;;5027881;28;20268;-96
2022/07/10 02:27:30;;;;;;;1.13;1.00;;;24.10;99.90;;;;;;5024007;28;20229;-96
2022/07/10 02:30:03;;;;;;;1.70;1.00;;;24.00;99.90;;;;;;5024040;28;20237;-96
2022/07/10 02:35:24;;;;;;;1.20;0.93;;;23.50;99.90;;;;;;5042473;28;20227;-96
2022/07/10 02:38:08;;;;;;;1.00;0.90;;;23.00;99.90;;;;;;5047845;28;20197;-96
2022/07/10 02:44:21;;;;;;;1.17;0.97;;;22.30;99.90;;;;;;5056501;28;20204;-96
2022/07/10 02:47:07;;;;;;;2.17;1.70;;;22.20;99.90;;;;;;5055534;28;20203;-96
2022/07/10 02:49:50;;;;;;;2.30;1.40;;;21.90;99.90;;;;;;5057360;28;20216;-96
2022/07/10 03:12:08;;;;;;;5.77;2.70;;;21.00;99.90;;;;;;5054244;28;20193;-96
2022/07/10 03:17:46;;;;;;;1.20;0.90;;;20.30;99.90;;;;;;5051053;28;20232;-96
2022/07/10 03:20:23;;;;;;;1.53;1.00;;;20.30;99.90;;;;;;5051706;28;20213;-96
2022/07/10 03:22:56;;;;;;;1.33;0.97;;;20.10;99.90;;;;;;5054231;28;20216;-96
2022/07/10 03:25:34;;;;;;;1.17;0.97;;;20.10;99.90;;;;;;5053984;28;20232;-96
2022/07/10 03:28:38;;;;;;;1.20;1.10;;;20.00;99.90;;;;;;5053192;28;20219;-96
2022/07/10 03:31:13;;;;;;;1.13;1.03;;;19.90;99.90;;;;;;5050536;28;20220;-96
2022/07/10 03:33:54;;;;;;;2.30;1.40;;;19.80;99.90;;;;;;5052088;28;20213;-96
2022/07/10 03:36:39;;;;;;;1.17;1.07;;;19.70;99.90;;;;;;5049333;28;20212;-96
2022/07/10 03:39:12;;;;;;;1.83;1.27;;;19.60;99.90;;;;;;5046733;28;20217;-96
2022/07/10 03:41:46;;;;;;;1.27;0.87;;;19.50;99.90;;;;;;5051812;28;20212;-96
2022/07/10 03:44:24;;;;;;;1.10;1.10;;;19.50;99.90;;;;;;5053625;28;20212;-96
2022/07/10 03:46:58;;;;;;;1.40;1.07;;;19.40;99.90;;;;;;5054192;28;20236;-96
2022/07/10 03:49:39;;;;;;;1.00;0.90;;;19.40;99.90;;;;;;5052484;28;20201;-96
2022/07/10 03:55:06;;;;;;;1.33;1.00;;;19.30;99.90;;;;;;5067538;28;20234;-96
2022/07/10 03:57:56;;;;;;;1.27;0.90;;;19.20;99.90;;;;;;5062489;28;20619;-96
2022/07/10 04:00:58;;;;;;;1.47;0.80;;;19.20;99.90;;;;;;5063625;28;20200;-96
2022/07/10 04:09:30;;;;;;;1.00;0.90;;;18.90;99.90;;;;;;5073948;28;20243;-96
2022/07/10 04:15:18;;;;;;;1.63;0.90;;;18.90;99.90;;;;;;5070990;28;20208;-96
2022/07/10 04:17:50;;;;;;;0.87;0.87;;;18.80;99.90;;;;;;5066162;28;20213;-96
2022/07/10 04:20:27;;;;;;;1.40;0.90;;;18.70;99.90;;;;;;5061923;28;20635;-96
2022/07/10 04:23:03;;;;;;;2.07;0.90;;;18.70;99.90;;;;;;5066643;28;20210;-96
2022/07/10 04:25:35;;;;;;;0.80;0.70;;;18.60;99.90;;;;;;5061848;28;20232;-96
2022/07/10 04:28:08;;;;;;;2.03;0.90;;;18.60;99.90;;;;;;5062280;28;20200;-96
2022/07/10 04:30:48;;;;;;;0.90;0.63;;;18.50;99.90;;;;;;5061290;28;20273;-96
2022/07/10 04:33:24;;;;;;;0.80;0.80;;;18.40;99.90;;;;;;5058570;28;20220;-96
2022/07/10 04:35:57;;;;;;;0.53;0.53;;;18.40;99.90;;;;;;5061710;28;20234;-96
2022/07/10 04:41:36;;;;;;;0.93;0.70;;;18.30;99.90;;;;;;5071499;28;20208;-96
2022/07/10 04:44:14;;;;;;;1.07;0.60;;;18.30;99.90;;;;;;5064434;28;20214;-96
2022/07/10 04:46:52;;;;;;;1.70;0.80;;;18.20;99.90;;;;;;5069573;28;20220;-96
2022/07/10 04:49:30;;;;;;;1.33;0.70;;;18.20;99.90;;;;;;5070842;28;20242;-96
2022/07/10 04:52:36;;;;;;;1.13;0.93;;;18.20;99.90;;;;;;5070542;28;20212;-96
2022/07/10 04:55:13;;;;;;;0.90;0.67;;;18.10;99.90;;;;;;5075164;28;20203;-96
2022/07/10 04:57:46;;;;;;;1.07;0.70;;;18.10;99.90;;;;;;5070056;28;20208;-96
2022/07/10 05:00:19;;;;;;;0.80;0.80;;;18.00;99.90;;;;;;5069639;28;20223;-96
2022/07/10 05:02:53;;;;;;;0.80;0.80;;;17.90;99.90;;;;;;5067998;28;20569;-96
2022/07/10 05:05:27;;;;;;;2.80;0.80;;;17.90;99.90;;;;;;5069736;28;20597;-96
2022/07/10 05:08:13;;;;;;;2.77;0.90;;;17.90;99.90;;;;;;5061212;28;20208;-96
2022/07/10 05:25:50;;;;;;;1.90;0.97;;;17.80;99.90;;;;;;5053925;28;20664;-96
2022/07/10 05:28:45;;;;;;;1.03;0.80;;;17.80;99.90;;;;;;5052617;28;20223;-96
2022/07/10 05:34:03;;;;;;;2.50;0.93;;;17.80;99.90;;;;;;5145388;23;20271;-96
2022/07/10 05:36:54;;;;;;;1.90;1.00;;;17.80;99.90;;;;;;5068643;28;20208;-96
2022/07/10 05:39:28;;;;;;;2.60;0.97;;;17.90;99.90;;;;;;5067070;28;20227;-96
2022/07/10 05:42:05;;;;;;;5.50;1.27;;;17.80;99.90;;;;;;5071050;28;20196;-96
2022/07/10 05:44:49;;;;;;;1.23;1.00;;;17.80;99.90;;;;;;5067105;28;20210;-96
2022/07/10 05:47:39;;;;;;;3.57;1.17;;;17.90;99.90;;;;;;5065751;28;20238;-96
2022/07/10 05:50:12;;;;;;;1.83;0.90;;;17.90;99.90;;;;;;5066426;28;20212;-96
2022/07/10 05:55:40;;;;;;;0.70;0.70;;;17.80;99.90;;;;;;5076293;28;20196;-96
2022/07/10 05:58:19;;;;;;;1.63;0.90;;;17.90;99.90;;;;;;5076169;28;20200;-96
2022/07/10 06:03:45;;;;;;;1.33;0.90;;;17.90;99.90;;;;;;5087652;28;20573;-96
2022/07/10 06:06:35;;;;;;;1.10;1.00;;;17.90;99.90;;;;;;5086119;28;20223;-96
2022/07/10 06:09:20;;;;;;;1.00;0.90;;;17.80;99.90;;;;;;5085440;28;20203;-96
2022/07/10 06:11:57;;;;;;;1.20;1.10;;;17.80;99.90;;;;;;5087751;28;20211;-96
2022/07/10 06:14:29;;;;;;;2.43;1.00;;;17.80;99.90;;;;;;5086313;28;20261;-96
2022/07/10 06:17:31;;;;;;;1.00;0.90;;;17.70;99.90;;;;;;5081123;28;20219;-96
2022/07/10 06:20:04;;;;;;;1.33;0.90;;;17.80;99.90;;;;;;5087255;28;20218;-96
2022/07/10 06:22:53;;;;;;;1.90;1.20;;;17.70;99.90;;;;;;5089565;28;20245;-96
2022/07/10 06:25:30;;;;;;;0.83;0.80;;;17.70;99.90;;;;;;5091293;28;20199;-96
2022/07/10 06:28:12;;;;;;;1.47;1.03;;;17.70;99.90;;;;;;5093543;28;20207;-96
2022/07/10 06:33:44;;;;;;;1.10;1.00;;;17.70;99.90;;;;;;5114295;22;20301;-96
2022/07/10 06:36:20;;;;;;;1.47;1.10;;;17.60;99.90;;;;;;5039091;28;20189;-96
2022/07/10 06:39:08;;;;;;;1.93;1.13;;;17.60;99.90;;;;;;5038270;28;20228;-96
2022/07/10 06:41:48;;;;;;;1.73;1.00;;;17.60;99.90;;;;;;5082982;23;20208;-96
2022/07/10 06:44:25;;;;;;;1.37;0.90;;;17.60;99.90;;;;;;5078126;28;20271;-96
2022/07/10 06:50:04;;;;;;;3.73;1.30;;;17.60;99.90;;;;;;5698915;23;20375;-96
2022/07/10 06:52:59;;;;;;;1.17;0.87;;;17.60;99.90;;;;;;5168448;22;20236;-96
2022/07/10 06:55:32;;;;;;;1.50;1.03;;;17.60;99.90;;;;;;5072985;28;20211;-96
2022/07/10 06:58:13;;;;;;;1.27;1.17;;;17.70;99.90;;;;;;5077195;28;20192;-96
2022/07/10 07:06:42;;;;;;;1.33;0.90;;;17.80;99.90;;;;;;5076126;28;20247;-96
2022/07/10 07:09:15;;;;;;;1.63;1.00;;;17.80;99.90;;;;;;5071558;28;20230;-96
2022/07/10 07:23:13;;;;;;;1.10;0.80;;;17.70;99.90;;;;;;5064531;28;20200;-96
2022/07/10 07:25:46;;;;;;;1.57;0.80;;;17.80;99.90;;;;;;5064927;28;20616;-96
2022/07/10 07:28:19;;;;;;;0.93;0.90;;;17.80;99.90;;;;;;5063239;28;20683;-96
2022/07/10 07:33:45;;;;;;;0.90;0.90;;;17.60;99.90;;;;;;5062709;28;20311;-96
2022/07/10 07:36:16;;;;;;;3.53;1.00;;;17.40;99.90;;;;;;5063807;28;20219;-96
2022/07/10 07:38:52;;;;;;;1.03;0.93;;;17.40;99.90;;;;;;5064224;28;20201;-96
2022/07/10 07:41:24;;;;;;;1.10;1.00;;;17.40;99.90;;;;;;5064360;28;20519;-96
2022/07/10 07:43:56;;;;;;;1.07;1.00;;;17.50;99.90;;;;;;5064098;28;20212;-96
2022/07/10 07:46:29;;;;;;;1.50;1.13;;;17.60;99.90;;;;;;5061751;28;20260;-96
2022/07/10 07:49:01;;;;;;;1.13;0.90;;;17.50;99.90;;;;;;5061923;28;20322;-96
2022/07/10 07:51:36;;;;;;;1.07;0.90;;;17.60;99.90;;;;;;5062594;28;20224;-96
2022/07/10 07:54:10;;;;;;;1.23;1.03;;;17.50;99.90;;;;;;5062775;28;20220;-96
2022/07/10 07:56:43;;;;;;;1.67;0.80;;;17.50;99.90;;;;;;5066345;28;20227;-96
2022/07/10 07:59:16;;;;;;;1.20;0.90;;;17.40;99.90;;;;;;5074292;28;20271;-96
2022/07/10 08:01:48;;;;;;;0.63;0.63;;;17.40;99.90;;;;;;5077302;28;20185;-96
2022/07/10 08:04:21;;;;;;;0.73;0.70;;;17.30;99.90;;;;;;5077937;28;20242;-96
2022/07/10 08:07:02;;;;;;;1.43;0.80;;;17.20;99.90;;;;;;5097789;28;20251;-96
2022/07/10 08:09:40;;;;;;;2.47;0.80;;;17.20;99.90;;;;;;5087577;28;20241;-96
2022/07/10 08:12:13;;;;;;;2.03;0.80;;;17.20;99.90;;;;;;5081397;28;20203;-96
2022/07/10 08:14:47;;;;;;;0.97;0.77;;;17.20;99.90;;;;;;5084904;28;20233;-96
2022/07/10 08:25:43;;;;;;;1.83;1.20;;;17.10;99.90;;;;;;5002475;28;20210;-96
2022/07/10 08:28:15;;;;;;;1.53;0.80;;;17.00;99.90;;;;;;5004801;28;20246;-96
2022/07/10 08:30:54;;;;;;;1.80;0.87;;;17.00;99.90;;;;;;5001661;28;20273;-96
2022/07/10 08:36:17;;;;;;;1.10;0.90;;;16.90;99.90;;;;;;5430796;23;20267;-96
2022/07/10 08:39:09;;;;;;;0.80;0.77;;;16.80;99.90;;;;;;5020619;28;20221;-96
2022/07/10 08:41:50;;;;;;;1.23;0.90;;;16.70;99.90;;;;;;5018931;28;20213;-96
2022/07/10 08:44:21;;;;;;;1.77;0.70;;;16.70;99.90;;;;;;5018983;28;20244;-96
2022/07/10 08:46:56;;;;;;;2.57;0.97;;;16.70;99.90;;;;;;5019051;28;20244;-96
2022/07/10 08:49:35;;;;;;;2.47;1.00;;;16.70;99.90;;;;;;5019078;28;20213;-96
2022/07/10 08:52:11;;;;;;;0.80;0.80;;;16.70;99.90;;;;;;5018463;28;20236;-96
2022/07/10 08:54:43;;;;;;;0.70;0.63;;;16.70;99.90;;;;;;5018878;28;20273;-96
2022/07/10 08:57:19;;;;;;;1.00;0.90;;;16.70;99.90;;;;;;5019109;28;20291;-96
2022/07/10 08:59:51;;;;;;;0.63;0.63;;;16.70;99.90;;;;;;5018659;28;20213;-96
2022/07/10 09:02:23;;;;;;;1.17;0.80;;;16.70;99.90;;;;;;5018771;28;20205;-96
2022/07/10 09:04:55;;;;;;;1.83;0.80;;;16.70;99.90;;;;;;5018795;28;20213;-96
2022/07/10 09:07:35;;;;;;;1.67;0.90;;;16.80;99.90;;;;;;5019020;28;20237;-96
2022/07/10 09:10:14;;;;;;;1.27;1.00;;;16.70;99.90;;;;;;5017879;28;20217;-96
2022/07/10 09:13:03;;;;;;;0.90;0.80;;;16.70;99.90;;;;;;5000141;28;20210;-96
2022/07/10 09:15:36;;;;;;;1.47;0.70;;;16.60;99.90;;;;;;4999222;28;20319;-96
2022/07/10 09:18:09;;;;;;;1.57;1.00;;;16.60;99.90;;;;;;4999285;28;20218;-96
2022/07/10 09:20:43;;;;;;;1.13;0.93;;;16.60;99.90;;;;;;4997896;28;20209;-96
2022/07/10 09:23:18;;;;;;;1.57;0.90;;;16.50;99.90;;;;;;4998383;28;20210;-96
2022/07/10 09:26:16;;;;;;;1.17;0.90;;;16.50;99.90;;;;;;5009217;28;20224;-96
2022/07/10 09:29:08;;;;;;;1.03;1.00;;;16.40;99.90;;;;;;5012012;28;20242;-96
2022/07/10 09:31:55;;;;;;;2.20;1.03;;;16.30;99.90;;;;;;5003707;28;20195;-96
2022/07/10 09:34:45;;;;;;;1.23;0.80;;;16.30;99.90;;;;;;5013577;28;20240;-96
2022/07/10 09:37:24;;;;;;;1.43;1.13;;;16.20;99.90;;;;;;5006831;28;20253;-96
2022/07/10 09:39:57;;;;;;;1.07;0.97;;;16.20;99.90;;;;;;5001744;28;20206;-96
2022/07/10 09:42:31;;;;;;;0.90;0.80;;;16.10;99.90;;;;;;5016672;28;20217;-96
2022/07/10 09:45:24;;;;;;;2.27;1.10;;;16.00;99.90;;;;;;5022881;28;20213;-96
2022/07/10 09:48:03;;;;;;;1.53;1.00;;;16.00;99.90;;;;;;5016611;28;20232;-96
2022/07/10 09:50:38;;;;;;;0.70;0.70;;;16.00;99.90;;;;;;5018293;28;20229;-96
2022/07/10 09:53:10;;;;;;;1.60;1.10;;;15.90;99.90;;;;;;5017677;28;20229;-96
2022/07/10 09:55:43;;;;;;;2.00;1.00;;;15.90;99.90;;;;;;5021771;28;20316;-96
2022/07/10 09:58:17;;;;;;;1.57;1.00;;;15.90;99.90;;;;;;5021945;28;20225;-96
2022/07/10 10:00:53;;;;;;;0.93;0.83;;;15.80;99.90;;;;;;5037360;28;20554;-96
2022/07/10 10:03:28;;;;;;;1.60;1.13;;;15.80;99.90;;;;;;5041285;28;20215;-96
2022/07/10 10:06:05;;;;;;;1.60;1.23;;;15.80;99.90;;;;;;5040033;28;20212;-96
2022/07/10 10:08:46;;;;;;;1.33;1.00;;;15.70;99.90;;;;;;5020174;28;20244;-96
2022/07/10 10:11:21;;;;;;;2.30;1.20;;;15.70;99.90;;;;;;5020291;28;20260;-96
2022/07/10 10:13:54;;;;;;;1.37;0.90;;;15.60;99.90;;;;;;5021479;28;20240;-96
2022/07/10 10:16:30;;;;;;;1.90;1.03;;;15.60;99.90;;;;;;5021729;28;20259;-96
2022/07/10 10:21:58;;;;;;;1.17;1.00;;;15.60;99.90;;;;;;5021373;28;20662;-96
2022/07/10 10:24:47;;;;;;;1.33;0.90;;;15.50;99.90;;;;;;5021809;28;20218;-96
2022/07/10 10:27:20;;;;;;;1.20;1.10;;;15.50;99.90;;;;;;5023069;28;20201;-96
2022/07/10 10:29:53;;;;;;;2.00;1.17;;;15.50;99.90;;;;;;5024366;28;20317;-96
2022/07/10 10:32:31;;;;;;;1.57;1.00;;;15.40;99.90;;;;;;5020694;28;20248;-96
2022/07/10 10:35:06;;;;;;;1.73;1.30;;;15.40;99.90;;;;;;5021991;28;20240;-96
2022/07/10 10:37:40;;;;;;;1.37;1.07;;;15.40;99.90;;;;;;5021756;28;20229;-96
2022/07/10 10:40:36;;;;;;;2.63;1.30;;;15.40;99.90;;;;;;5020336;28;20205;-96
2022/07/10 10:43:24;;;;;;;1.43;1.20;;;15.40;99.90;;;;;;5001354;28;20248;-96
2022/07/10 10:45:56;;;;;;;1.30;1.10;;;15.30;99.90;;;;;;5001298;28;20237;-96
2022/07/10 10:48:30;;;;;;;1.50;1.30;;;15.30;99.90;;;;;;5000190;28;20290;-96
2022/07/10 10:51:07;;;;;;;1.83;1.40;;;15.30;99.90;;;;;;5000116;28;20206;-96
2022/07/10 10:53:39;;;;;;;1.47;1.10;;;15.30;99.90;;;;;;5001373;28;20245;-96
2022/07/10 10:56:29;;;;;;;1.33;1.20;;;15.30;99.90;;;;;;5001035;28;20222;-96
2022/07/10 10:59:00;;;;;;;2.20;1.40;;;15.30;99.90;;;;;;5000915;28;20265;-96
2022/07/10 11:01:32;;;;;;;1.93;1.40;;;15.30;99.90;;;;;;5001311;28;20272;-96
2022/07/10 11:04:19;;;;;;;4.47;1.13;;;15.30;99.90;;;;;;5003436;28;20210;-96
2022/07/10 11:06:54;;;;;;;1.37;1.27;;;15.40;99.90;;;;;;5010599;28;20240;-96
2022/07/10 11:09:30;;;;;;;1.47;1.23;;;15.40;99.90;;;;;;5010938;28;20261;-96
2022/07/10 11:12:06;;;;;;;2.00;1.50;;;15.50;99.90;;;;;;5009697;28;20214;-96
2022/07/10 11:14:39;;;;;;;1.50;1.40;;;15.50;99.90;;;;;;5018994;28;20229;-96
2022/07/10 11:17:11;;;;;;;3.13;1.50;;;15.60;99.90;;;;;;5019020;28;20250;-96
2022/07/10 11:19:45;;;;;;;2.07;1.30;;;15.60;99.90;;;;;;5018626;28;20226;-95
2022/07/10 11:22:39;;;;;;;1.57;1.40;;;15.60;99.90;;;;;;5016277;28;20214;-96
2022/07/10 11:25:30;;;;;;;1.30;1.20;;;15.70;99.90;;;;;;5016645;28;20222;-96
2022/07/10 11:28:09;;;;;;;2.07;1.30;;;15.80;99.90;;;;;;5002649;28;20663;-96
2022/07/10 11:30:49;;;;;;;1.30;1.20;;;15.80;99.90;;;;;;5000757;28;20265;-96
2022/07/10 11:33:24;;;;;;;1.47;1.37;;;15.90;99.90;;;;;;5001945;28;20209;-96
2022/07/10 11:35:58;;;;;;;1.70;1.60;;;16.00;99.90;;;;;;5001327;28;20214;-96
2022/07/10 11:38:35;;;;;;;1.93;1.40;;;16.00;99.90;;;;;;5001297;28;20212;-96
2022/07/10 11:41:14;;;;;;;1.60;1.37;;;16.10;99.90;;;;;;4999878;28;20231;-96
2022/07/10 11:43:53;;;;;;;3.17;1.30;;;16.00;99.90;;;;;;5001138;28;20298;-96
2022/07/10 11:46:26;;;;;;;1.40;1.20;;;16.00;99.90;;;;;;5000308;28;20237;-96
2022/07/10 11:49:08;;;;;;;1.80;1.23;;;16.10;99.90;;;;;;5001876;28;20238;-96
2022/07/10 11:51:44;;;;;;;1.40;1.30;;;16.10;99.90;;;;;;5000512;28;20222;-96
2022/07/10 11:54:18;;;;;;;1.43;1.30;;;16.00;99.90;;;;;;5001594;28;20213;-96
2022/07/10 11:56:54;;;;;;;1.40;1.30;;;16.10;99.90;;;;;;5004651;28;20198;-96
2022/07/10 11:59:28;;;;;;;1.60;1.50;;;16.00;99.90;;;;;;5017655;28;20194;-96
2022/07/10 12:02:00;;;;;;;1.97;1.40;;;16.00;99.90;;;;;;5017071;28;20221;-95
2022/07/10 12:04:33;;;;;;;1.40;1.30;;;16.00;99.90;;;;;;5017949;28;20224;-96
2022/07/10 12:07:06;;;;;;;1.43;1.33;;;15.90;99.90;;;;;;5027659;28;20221;-96
2022/07/10 12:09:38;;;;;;;1.40;1.30;;;16.00;99.90;;;;;;5045088;28;20212;-96
2022/07/10 12:12:11;;;;;;;1.63;1.37;;;16.00;99.90;;;;;;5056226;28;20199;-96
2022/07/10 12:14:43;;;;;;;1.53;1.43;;;15.90;99.90;;;;;;5057480;28;20232;-96
2022/07/10 12:17:16;;;;;;;1.50;1.40;;;15.90;99.90;;;;;;5057247;28;20208;-96
2022/07/10 12:19:50;;;;;;;2.13;1.30;;;16.00;99.90;;;;;;5053328;28;20216;-96
2022/07/10 12:22:25;;;;;;;1.80;1.40;;;16.00;99.90;;;;;;5056799;28;20196;-96
2022/07/10 12:25:00;;;;;;;1.40;1.30;;;16.00;99.90;;;;;;5043103;28;20707;-96
2022/07/10 12:27:44;;;;;;;4.67;1.70;;;15.90;99.90;;;;;;5040113;28;20217;-96
2022/07/10 12:30:23;;;;;;;1.40;1.30;;;15.90;99.90;;;;;;5038129;28;20241;-96
2022/07/10 12:32:56;;;;;;;1.50;1.40;;;15.90;99.90;;;;;;5038623;28;20233;-96
2022/07/10 12:35:27;;;;;;;2.17;1.47;;;15.80;99.90;;;;;;5038477;28;20220;-96
2022/07/10 12:38:00;;;;;;;1.60;1.50;;;15.90;99.90;;;;;;5038926;28;20224;-96
2022/07/10 12:40:37;;;;;;;2.23;2.00;;;15.90;99.90;;;;;;5017762;28;20236;-96
2022/07/10 12:43:11;;;;;;;1.80;1.70;;;15.90;99.90;;;;;;5018525;28;20305;-96
2022/07/10 12:45:42;;;;;;;1.90;1.47;;;15.80;99.90;;;;;;5019071;28;20205;-96
2022/07/10 12:48:25;;;;;;;2.10;1.70;;;15.80;99.90;;;;;;5019424;28;20197;-96
2022/07/10 12:50:58;;;;;;;1.60;1.50;;;15.80;99.90;;;;;;5018087;28;20240;-96
2022/07/10 12:53:33;;;;;;;2.30;1.70;;;15.70;99.90;;;;;;5018783;28;20300;-96
2022/07/10 12:56:04;;;;;;;2.47;1.77;;;15.70;99.90;;;;;;5018565;28;20221;-96
2022/07/10 12:58:36;;;;;;;1.70;1.60;;;15.70;99.90;;;;;;5020444;28;20634;-96
2022/07/10 13:01:08;;;;;;;2.27;1.80;;;15.70;99.90;;;;;;5017956;28;20213;-96
2022/07/10 13:06:40;;;;;;;2.37;1.50;;;15.70;99.90;;;;;;5107150;23;20270;-96
2022/07/10 13:09:25;;;;;;;1.83;1.40;;;15.80;99.90;;;;;;5050358;28;20238;-96
2022/07/10 13:11:57;;;;;;;2.07;1.87;;;15.90;99.90;;;;;;5060503;28;20195;-96
2022/07/10 13:14:30;;;;;;;1.97;1.70;;;15.80;99.90;;;;;;5060133;28;20208;-96
2022/07/10 13:17:02;;;;;;;1.80;1.70;;;15.90;99.90;;;;;;5062672;28;20262;-96
2022/07/10 13:19:34;;;;;;;2.87;1.80;;;15.90;99.90;;;;;;5064705;28;20618;-95
2022/07/10 13:22:06;;;;;;;4.63;1.90;;;15.90;99.90;;;;;;5065906;28;20288;-96
2022/07/10 13:24:41;;;;;;;1.77;1.67;;;15.80;99.90;;;;;;5064425;28;20235;-96
2022/07/10 13:27:13;;;;;;;1.60;1.50;;;15.70;99.90;;;;;;5075019;28;20192;-96
2022/07/10 13:29:48;;;;;;;1.70;1.60;;;15.70;99.90;;;;;;5076649;28;20219;-96
2022/07/10 13:32:22;;;;;;;1.57;1.47;;;15.70;99.90;;;;;;5076676;28;20208;-96
2022/07/10 13:35:00;;;;;;;2.60;1.60;;;15.70;99.90;;;;;;5076361;28;20251;-96
2022/07/10 13:37:32;;;;;;;1.50;1.40;;;15.70;99.90;;;;;;5074781;28;20204;-96
2022/07/10 13:40:16;;;;;;;1.70;1.60;;;15.70;99.90;;;;;;5065899;28;20581;-96
2022/07/10 13:42:50;;;;;;;1.93;1.27;;;15.80;99.90;;;;;;5065893;28;20747;-96
2022/07/10 13:45:24;;;;;;;1.73;1.63;;;15.90;99.90;;;;;;5066373;28;20265;-97
2022/07/10 13:48:00;;;;;;;2.43;1.37;;;15.90;99.90;;;;;;5066792;28;20210;-96
2022/07/10 13:50:34;;;;;;;1.83;1.40;;;16.00;99.90;;;;;;5065522;28;20326;-96
2022/07/10 13:53:10;;;;;;;3.40;1.50;;;15.90;99.90;;;;;;5067910;28;20234;-96
2022/07/10 13:55:45;;;;;;;1.50;1.40;;;15.80;99.90;;;;;;5065100;28;20204;-96
2022/07/10 13:58:17;;;;;;;1.57;1.47;;;15.90;99.90;;;;;;5062890;28;20222;-96
2022/07/10 14:00:49;;;;;;;1.80;1.57;;;15.90;99.90;;;;;;5059898;28;20212;-96
2022/07/10 14:09:22;;;;;;;1.67;1.43;;;15.80;99.90;;;;;;5075582;28;20214;-96
2022/07/10 14:11:57;;;;;;;1.60;1.50;;;16.00;99.90;;;;;;5045902;28;20707;-96
2022/07/10 14:14:29;;;;;;;1.57;1.30;;;16.10;99.90;;;;;;5050940;28;20204;-96
2022/07/10 14:17:04;;;;;;;3.57;1.67;;;16.10;99.90;;;;;;5059140;28;20330;-96
2022/07/10 14:19:35;;;;;;;1.60;1.50;;;16.10;99.90;;;;;;5058152;28;20267;-96
2022/07/10 14:22:08;;;;;;;1.47;1.37;;;16.10;99.90;;;;;;5058162;28;20235;-96
2022/07/10 14:24:39;;;;;;;1.30;1.20;;;16.20;99.90;;;;;;5058882;28;20208;-96
2022/07/10 14:27:13;;;;;;;1.20;1.20;;;16.30;99.90;;;;;;5058975;28;20203;-96
2022/07/10 14:29:45;;;;;;;2.63;1.40;;;16.30;99.90;;;;;;5058824;28;20307;-96
2022/07/10 14:32:18;;;;;;;1.60;1.50;;;16.40;99.90;;;;;;5061704;28;20211;-96
2022/07/10 14:34:50;;;;;;;2.77;1.40;;;16.40;99.90;;;;;;5068210;28;20231;-96
2022/07/10 14:37:22;;;;;;;1.83;1.63;;;16.30;99.90;;;;;;5064139;28;20303;-96
2022/07/10 14:39:55;;;;;;;1.73;1.33;;;16.40;99.90;;;;;;5063256;28;20220;-96
2022/07/10 14:42:29;;;;;;;1.37;1.27;;;16.60;99.90;;;;;;5067641;28;20212;-96
2022/07/10 14:45:01;;;;;;;1.70;1.60;;;16.40;99.90;;;;;;5068972;28;20311;-96
2022/07/10 14:47:55;;;;;;;2.07;1.53;;;16.50;99.90;;;;;;5068745;28;20593;-96
2022/07/10 14:50:27;;;;;;;2.23;1.60;;;16.40;99.90;;;;;;5066563;28;20238;-96
2022/07/10 14:53:00;;;;;;;1.60;1.50;;;16.30;99.90;;;;;;5068288;28;20216;-96
2022/07/10 14:55:32;;;;;;;1.83;1.50;;;16.30;99.90;;;;;;5069219;28;20239;-96
2022/07/10 14:58:08;;;;;;;2.10;1.90;;;16.40;99.90;;;;;;5076421;28;20461;-96
2022/07/10 15:00:44;;;;;;;1.80;1.70;;;16.60;99.90;;;;;;5074137;28;20275;-96
2022/07/10 15:03:19;;;;;;;1.70;1.60;;;16.80;99.90;;;;;;5067762;28;20223;-96
2022/07/10 15:11:25;;;;;;;1.43;1.33;;;17.00;99.90;;;;;;5288228;22;20235;-96
2022/07/10 15:14:04;;;;;;;1.30;1.20;;;16.90;99.90;;;;;;5059226;28;20207;-96
2022/07/10 15:16:40;;;;;;;1.50;1.40;;;17.10;99.90;;;;;;5060216;28;20204;-96
2022/07/10 15:19:12;;;;;;;1.60;1.50;;;17.00;99.90;;;;;;5060611;28;20641;-96
2022/07/10 15:21:43;;;;;;;1.50;1.40;;;16.90;99.90;;;;;;5058628;28;20218;-96
2022/07/10 15:24:14;;;;;;;1.50;1.40;;;17.00;99.90;;;;;;5059803;28;20220;-96
2022/07/10 15:26:48;;;;;;;1.50;1.40;;;17.00;99.90;;;;;;5058735;28;20520;-94
2022/07/10 15:29:24;;;;;;;1.57;1.47;;;17.10;99.90;;;;;;5058871;28;20219;-96
2022/07/10 15:31:57;;;;;;;1.50;1.40;;;16.90;99.90;;;;;;5059541;28;20235;-96
2022/07/10 15:34:31;;;;;;;1.90;1.47;;;16.80;99.90;;;;;;5062480;28;20236;-96
2022/07/10 15:37:04;;;;;;;1.50;1.40;;;16.90;99.90;;;;;;5060435;28;20657;-96
2022/07/10 15:39:41;;;;;;;1.50;1.40;;;17.00;99.90;;;;;;5060109;28;20216;-96
2022/07/10 15:42:14;;;;;;;1.80;1.70;;;17.10;99.90;;;;;;5059182;28;20265;-96
2022/07/10 15:44:48;;;;;;;1.60;1.50;;;17.20;99.90;;;;;;5059256;28;20247;-96
2022/07/10 15:47:20;;;;;;;2.27;1.40;;;17.30;99.90;;;;;;5059492;28;20215;-96
2022/07/10 15:49:52;;;;;;;1.80;1.53;;;17.40;99.90;;;;;;5062071;28;20264;-96
2022/07/10 15:52:24;;;;;;;1.60;1.50;;;17.10;99.90;;;;;;5058071;28;20282;-96
2022/07/10 15:54:56;;;;;;;1.43;1.33;;;17.20;99.90;;;;;;5060930;28;20219;-96
2022/07/10 15:57:28;;;;;;;1.50;1.40;;;17.30;99.90;;;;;;5059611;28;20582;-96
2022/07/10 16:00:08;;;;;;;2.27;1.67;;;17.50;99.90;;;;;;5065080;28;20284;-96
2022/07/10 16:17:00;;;;;;;1.90;1.80;;;18.10;99.90;;;;;;5971909;23;20569;-96
2022/07/10 16:19:38;;;;;;;1.83;1.73;;;18.20;99.90;;;;;;5060265;28;20211;-96
2022/07/10 16:22:10;;;;;;;1.97;1.70;;;18.20;99.90;;;;;;5072682;28;20829;-96
2022/07/10 16:27:28;;;;;;;1.93;1.80;;;17.70;99.90;;;;;;5059604;28;20204;-96
2022/07/10 16:29:59;;;;;;;1.80;1.70;;;17.40;99.90;;;;;;5067270;28;20212;-96
2022/07/10 16:32:34;;;;;;;1.93;1.83;;;17.40;99.90;;;;;;5071731;28;20335;-96
2022/07/10 16:35:06;;;;;;;1.70;1.60;;;17.40;99.90;;;;;;5076488;28;20191;-96
2022/07/10 16:37:40;;;;;;;1.63;1.50;;;17.40;99.90;;;;;;5076893;28;20200;-96
2022/07/10 16:40:12;;;;;;;2.70;2.00;;;17.60;99.90;;;;;;5065469;28;20274;-96
2022/07/10 16:42:47;;;;;;;2.00;1.90;;;17.80;99.90;;;;;;5062435;28;20254;-96
2022/07/10 16:48:33;;;;;;;4.10;1.97;;;18.10;99.90;;;;;;5069215;28;20211;-96
2022/07/10 16:51:06;;;;;;;2.33;2.13;;;18.30;99.90;;;;;;5070773;28;20254;-96
2022/07/10 16:53:49;;;;;;;3.20;2.33;;;18.50;99.90;;;;;;5066435;28;20224;-96
2022/07/10 16:56:37;;;;;;;1.70;1.60;;;18.30;99.90;;;;;;5069697;28;20287;-96
2022/07/10 17:02:26;;;;;;;1.77;1.67;;;17.70;99.90;;;;;;5065062;28;20211;-96